Time;durP1;ratioP1;P1;durP2;ratioP2;P2;SDS_P1;SDS_P2;PMS_P1;PMS_P2;Temp;Humidity;BMP_temperature;BMP_pressure;BME280_temperature;BME280_humidity;BME280_pressure;Samples;Min_cycle;Max_cycle;Signal;HPM_P1;HPM_P2
2021/07/09 00:01:56;;;;;;;7.18;1.13;;;14.90;99.90;;;14.04;94.56;98024.97;5037474;28;20116;-63
2021/07/09 00:04:44;;;;;;;6.38;0.93;;;14.90;99.90;;;14.15;94.27;98032.28;5047414;28;20558;-63
2021/07/09 00:07:31;;;;;;;6.90;0.80;;;15.00;99.90;;;14.16;94.17;98023.50;5040329;28;20048;-63
2021/07/09 00:10:18;;;;;;;11.18;1.92;;;15.00;99.90;;;14.17;94.23;98026.03;5049592;28;20358;-63
2021/07/09 00:13:05;;;;;;;4.25;0.70;;;15.00;99.90;;;14.15;94.33;98027.88;5052276;28;20190;-63
2021/07/09 00:15:53;;;;;;;4.85;1.00;;;15.00;99.90;;;14.23;94.08;98030.09;5051769;28;20041;-63
2021/07/09 00:18:40;;;;;;;4.18;1.05;;;15.00;99.90;;;14.32;93.76;98028.81;5051575;28;20053;-63
2021/07/09 00:21:27;;;;;;;5.88;1.00;;;15.00;99.90;;;14.31;93.66;98021.91;5049680;28;20045;-63
2021/07/09 00:24:16;;;;;;;4.43;1.40;;;15.10;99.90;;;14.37;91.78;98021.59;5051285;28;20574;-63
2021/07/09 00:27:04;;;;;;;2.25;1.20;;;15.10;99.90;;;14.29;91.93;98021.13;5048677;28;20294;-63
2021/07/09 00:29:51;;;;;;;12.73;1.50;;;15.20;99.90;;;14.33;91.50;98022.66;5054691;28;20048;-63
2021/07/09 00:32:38;;;;;;;4.43;1.33;;;15.30;99.90;;;14.41;90.84;98021.38;5052408;28;20106;-63
2021/07/09 00:35:26;;;;;;;4.07;1.30;;;15.40;99.90;;;14.43;91.19;98014.25;5051599;28;20129;-63
2021/07/09 00:38:13;;;;;;;2.53;1.25;;;15.40;99.90;;;14.46;91.43;98015.03;5036433;28;20069;-63
2021/07/09 00:41:02;;;;;;;3.55;1.38;;;15.50;99.90;;;14.52;90.73;98009.50;5048567;28;20043;-63
2021/07/09 00:43:49;;;;;;;5.38;1.50;;;15.50;99.90;;;14.47;91.45;98004.53;5045384;28;20548;-63
2021/07/09 00:46:40;;;;;;;6.90;1.80;;;15.50;99.90;;;14.55;90.79;97998.91;5052188;28;20420;-63
2021/07/09 00:49:28;;;;;;;3.95;1.63;;;15.50;99.90;;;14.68;90.60;97996.53;5037380;28;20044;-63
2021/07/09 00:52:17;;;;;;;3.35;1.50;;;15.50;99.90;;;14.67;90.48;97992.25;5051161;28;20548;-63
2021/07/09 00:55:06;;;;;;;2.67;1.30;;;15.50;99.90;;;14.69;89.88;97999.06;5051135;28;20079;-63
2021/07/09 00:57:54;;;;;;;3.53;1.58;;;15.50;99.90;;;14.66;90.74;97993.16;5052246;28;20041;-64
2021/07/09 01:00:42;;;;;;;4.55;1.90;;;15.40;99.90;;;14.63;90.89;97992.38;5045291;28;20527;-63
2021/07/09 01:03:30;;;;;;;3.40;1.60;;;15.50;99.90;;;14.67;90.94;98000.91;5050024;28;20041;-64
2021/07/09 01:06:17;;;;;;;6.75;1.80;;;15.50;99.90;;;14.74;89.85;97994.44;5032778;28;20090;-63
2021/07/09 01:09:05;;;;;;;2.30;1.60;;;15.50;99.90;;;14.79;89.96;97996.81;5046465;28;20056;-64
2021/07/09 01:11:52;;;;;;;2.08;1.30;;;15.50;99.90;;;14.82;89.52;97994.03;5050394;28;20492;-63
2021/07/09 01:14:39;;;;;;;2.53;1.20;;;15.50;99.90;;;14.96;88.60;97988.06;5048374;28;20051;-63
2021/07/09 01:17:27;;;;;;;4.90;1.67;;;15.60;99.90;;;14.85;89.35;97983.41;5049884;28;20087;-64
2021/07/09 01:20:17;;;;;;;3.13;1.42;;;15.60;99.90;;;14.90;88.88;97978.78;5033404;28;20107;-63
2021/07/09 01:23:06;;;;;;;3.05;1.38;;;15.60;99.90;;;14.86;89.20;97977.25;5050442;28;20132;-63
2021/07/09 01:25:56;;;;;;;6.07;1.33;;;15.60;99.90;;;14.85;88.97;97983.41;5050839;28;20213;-63
2021/07/09 01:28:43;;;;;;;4.95;1.40;;;15.60;99.90;;;14.94;88.16;97977.69;5045909;28;20072;-64
2021/07/09 01:31:31;;;;;;;6.35;1.30;;;15.70;99.90;;;14.89;88.17;97978.84;5044918;28;20441;-63
2021/07/09 01:34:18;;;;;;;3.58;1.42;;;15.60;99.90;;;14.75;88.36;97976.97;5037822;28;20494;-63
2021/07/09 01:37:17;;;;;;;3.83;1.30;;;15.70;99.90;;;14.91;88.74;97969.16;5034534;28;20037;-63
2021/07/09 01:40:11;;;;;;;4.80;1.50;;;15.60;99.90;;;14.91;88.10;97972.63;5038102;28;20488;-63
2021/07/09 01:42:59;;;;;;;3.95;1.30;;;15.50;99.90;;;15.01;87.76;97968.59;5037548;28;20437;-63
2021/07/09 01:45:46;;;;;;;4.45;1.30;;;15.60;99.90;;;14.93;88.33;97969.94;5046927;28;20120;-63
2021/07/09 01:48:34;;;;;;;3.05;1.50;;;15.60;99.90;;;14.92;87.87;97971.72;5032147;28;21258;-63
2021/07/09 01:51:21;;;;;;;2.88;1.40;;;15.70;99.90;;;14.90;87.39;97965.72;5049954;28;20037;-63
2021/07/09 01:54:09;;;;;;;3.78;1.33;;;15.60;99.90;;;14.90;88.18;97965.72;5038398;28;20426;-63
2021/07/09 01:56:56;;;;;;;3.25;1.30;;;15.60;99.90;;;14.88;88.51;97970.19;5040078;28;20029;-63
2021/07/09 01:59:44;;;;;;;4.03;1.45;;;15.70;99.90;;;14.85;88.44;97971.19;5047257;28;20452;-64
2021/07/09 02:02:31;;;;;;;6.72;1.77;;;15.60;99.90;;;14.88;88.20;97964.13;5046712;28;20045;-63
2021/07/09 02:05:23;;;;;;;5.95;1.50;;;15.60;99.90;;;14.89;88.21;97966.63;5048862;28;20052;-63
2021/07/09 02:08:10;;;;;;;2.55;1.40;;;15.60;99.90;;;14.87;88.65;97972.88;5048729;28;20040;-63
2021/07/09 02:10:57;;;;;;;7.43;1.92;;;15.60;99.90;;;14.77;89.52;97978.59;5039178;28;20045;-63
2021/07/09 02:13:45;;;;;;;4.35;2.15;;;15.70;99.90;;;14.68;89.20;97975.63;5048366;28;20166;-63
2021/07/09 02:16:32;;;;;;;4.20;1.60;;;15.70;99.90;;;14.78;89.34;97980.28;5046270;28;20055;-63
2021/07/09 02:19:20;;;;;;;3.85;1.70;;;15.70;99.90;;;14.88;89.14;97978.03;5047728;28;20049;-63
2021/07/09 02:22:11;;;;;;;5.53;2.10;;;15.70;99.90;;;14.86;88.65;97979.88;5048739;28;20037;-63
2021/07/09 02:24:59;;;;;;;4.95;2.00;;;15.70;99.90;;;14.95;88.57;97975.91;5044601;28;20048;-63
2021/07/09 02:27:49;;;;;;;4.38;2.15;;;15.70;99.90;;;14.90;89.25;97983.19;5044062;28;20126;-63
2021/07/09 02:30:36;;;;;;;7.00;2.30;;;15.70;99.90;;;14.80;89.05;97977.56;5043090;28;20044;-63
2021/07/09 02:33:24;;;;;;;4.22;2.03;;;15.70;99.90;;;14.84;89.38;97981.72;5038121;28;20159;-63
2021/07/09 02:36:11;;;;;;;6.05;2.20;;;15.70;99.90;;;14.93;88.93;97978.59;5043214;28;20037;-63
2021/07/09 02:38:59;;;;;;;4.10;2.30;;;15.80;99.90;;;14.87;89.00;97983.31;5045655;28;20047;-64
2021/07/09 02:41:46;;;;;;;5.68;2.50;;;15.70;99.90;;;14.87;89.44;97981.56;5039602;28;20423;-64
2021/07/09 02:44:35;;;;;;;5.45;2.30;;;15.70;99.90;;;14.94;88.61;97976.84;5046981;28;20154;-63
2021/07/09 02:47:23;;;;;;;5.47;2.60;;;15.60;99.90;;;14.92;88.49;97976.94;5046343;28;20047;-63
2021/07/09 02:50:16;;;;;;;6.20;2.28;;;15.70;99.90;;;14.98;87.95;97975.75;5045316;28;20040;-63
2021/07/09 02:53:03;;;;;;;8.43;2.17;;;15.70;99.90;;;15.13;87.72;97985.38;5049243;28;20040;-63
2021/07/09 02:55:50;;;;;;;6.90;2.10;;;15.80;99.90;;;15.12;88.03;97977.59;5038934;28;20188;-63
2021/07/09 02:58:38;;;;;;;6.60;2.50;;;15.90;99.90;;;14.95;88.38;97975.91;5045271;28;20575;-63
2021/07/09 03:01:25;;;;;;;6.38;2.35;;;15.90;99.90;;;15.10;88.23;97976.84;5041964;28;20146;-63
2021/07/09 03:04:13;;;;;;;4.40;2.17;;;15.80;99.90;;;15.14;87.76;97976.59;5048139;28;20041;-63
2021/07/09 03:07:00;;;;;;;4.28;1.92;;;15.80;99.90;;;15.06;87.77;97974.41;5043104;28;20229;-63
2021/07/09 03:09:48;;;;;;;4.05;2.20;;;15.80;99.90;;;15.23;87.32;97970.03;5045576;28;20141;-64
2021/07/09 03:12:38;;;;;;;4.95;2.25;;;15.80;99.90;;;15.02;88.09;97975.50;5047477;28;20049;-63
2021/07/09 03:15:25;;;;;;;5.55;2.20;;;15.80;99.90;;;14.80;89.10;97970.59;5033584;28;20037;-62
2021/07/09 03:18:12;;;;;;;3.97;2.15;;;15.80;99.90;;;15.00;89.33;97974.72;5048149;28;20044;-63
2021/07/09 03:21:00;;;;;;;7.40;2.10;;;15.80;99.90;;;15.17;88.29;97973.84;5044682;28;20049;-62
2021/07/09 03:23:48;;;;;;;7.75;2.47;;;15.80;99.90;;;15.04;89.02;97980.66;5017011;28;20083;-63
2021/07/09 03:26:35;;;;;;;4.85;2.22;;;15.80;99.90;;;15.20;88.11;97978.88;5041884;28;20138;-63
2021/07/09 03:29:23;;;;;;;3.70;2.22;;;15.90;99.90;;;15.09;87.93;97977.78;5048771;28;20045;-63
2021/07/09 03:32:11;;;;;;;5.20;2.25;;;15.80;99.90;;;15.24;87.53;97966.50;5047457;28;20043;-63
2021/07/09 03:34:59;;;;;;;5.18;2.10;;;15.90;99.90;;;15.28;87.54;97975.88;5038778;28;20542;-63
2021/07/09 03:37:46;;;;;;;7.40;2.80;;;15.90;99.90;;;15.09;88.38;97980.41;5036359;28;20057;-63
2021/07/09 03:40:34;;;;;;;6.50;2.40;;;15.90;99.90;;;15.21;87.60;97979.72;5046463;28;20075;-63
2021/07/09 03:43:21;;;;;;;4.93;2.22;;;15.90;99.90;;;15.28;87.42;97983.72;5046395;28;20124;-63
2021/07/09 03:46:08;;;;;;;5.78;2.25;;;15.90;99.90;;;15.17;88.97;97981.69;5052085;28;20080;-63
2021/07/09 03:48:56;;;;;;;10.68;2.28;;;15.80;99.90;;;15.04;89.29;97983.25;5048335;28;20492;-63
2021/07/09 03:51:43;;;;;;;5.05;2.70;;;15.80;99.90;;;14.85;89.44;97986.03;5047856;28;20068;-63
2021/07/09 03:54:30;;;;;;;6.82;2.70;;;15.70;99.90;;;14.95;88.82;97978.53;5051835;28;20037;-63
2021/07/09 03:57:18;;;;;;;4.35;2.72;;;15.70;99.90;;;14.78;89.64;97975.06;5036952;28;20037;-63
2021/07/09 04:00:09;;;;;;;5.18;2.45;;;15.70;99.90;;;14.76;89.89;97978.69;5051024;28;20442;-63
2021/07/09 04:02:57;;;;;;;4.80;2.28;;;15.70;99.90;;;14.71;89.72;97986.78;5025159;28;20052;-63
2021/07/09 04:05:44;;;;;;;7.68;3.00;;;15.60;99.90;;;14.51;91.27;97993.00;5049784;28;20041;-63
2021/07/09 04:08:31;;;;;;;7.88;3.13;;;15.60;99.90;;;14.50;90.87;97999.13;5051019;28;20489;-63
2021/07/09 04:11:19;;;;;;;4.50;2.83;;;15.50;99.90;;;14.40;91.79;98006.59;5048172;28;20051;-63
2021/07/09 04:14:06;;;;;;;6.28;3.03;;;15.50;99.90;;;14.44;91.47;97991.63;5049564;28;20044;-63
2021/07/09 04:16:53;;;;;;;7.00;3.10;;;15.50;99.90;;;14.41;91.82;97997.00;5051149;28;20033;-63
2021/07/09 04:19:41;;;;;;;10.80;3.78;;;15.50;99.90;;;14.35;92.36;98000.78;5050615;28;20079;-63
2021/07/09 04:22:28;;;;;;;13.73;3.70;;;15.60;99.90;;;14.34;91.98;98008.69;5050295;28;20496;-63
2021/07/09 04:25:15;;;;;;;12.95;3.65;;;15.50;99.90;;;14.28;92.55;98007.25;5048838;28;20511;-63
2021/07/09 04:28:03;;;;;;;7.88;3.03;;;15.50;99.90;;;14.32;92.45;98006.16;5048807;28;20455;-63
2021/07/09 04:30:51;;;;;;;7.25;3.78;;;15.50;99.90;;;14.30;92.43;98009.75;5049571;28;20041;-63
2021/07/09 04:33:40;;;;;;;8.95;3.25;;;15.50;99.90;;;14.34;92.54;98008.69;5049868;28;20438;-63
2021/07/09 04:36:27;;;;;;;8.02;3.78;;;15.50;99.90;;;14.04;95.29;98016.28;5047681;28;20048;-63
2021/07/09 04:39:14;;;;;;;7.65;3.58;;;15.40;99.90;;;14.23;94.20;98010.09;5051912;28;20086;-63
2021/07/09 04:42:06;;;;;;;8.82;3.13;;;15.20;99.90;;;14.28;94.01;98006.38;5048773;28;20044;-63
2021/07/09 04:44:53;;;;;;;5.60;3.13;;;15.20;99.90;;;14.30;93.78;98014.97;5050239;28;20069;-63
2021/07/09 04:47:41;;;;;;;6.57;3.47;;;15.10;99.90;;;14.40;93.44;97997.94;5048164;28;20166;-63
2021/07/09 04:50:28;;;;;;;5.07;3.05;;;15.10;99.90;;;14.55;92.58;97993.69;5047158;28;20037;-64
2021/07/09 04:53:15;;;;;;;13.35;3.33;;;15.20;99.90;;;14.50;92.68;98009.56;5034905;28;20044;-64
2021/07/09 04:56:03;;;;;;;10.45;3.72;;;15.20;99.90;;;14.50;92.80;98009.56;5046229;28;20042;-64
2021/07/09 04:58:50;;;;;;;6.88;3.92;;;15.20;99.90;;;14.19;94.52;98013.75;5051360;28;20069;-64
2021/07/09 05:01:37;;;;;;;5.65;3.75;;;15.20;99.90;;;14.07;96.10;98022.22;5049166;28;20072;-64
2021/07/09 05:04:25;;;;;;;8.48;4.30;;;15.20;99.90;;;13.92;97.32;98015.13;5047857;28;20053;-63
2021/07/09 05:07:12;;;;;;;9.25;4.47;;;15.20;99.90;;;13.87;97.84;98020.59;5046495;28;20118;-64
2021/07/09 05:09:59;;;;;;;7.38;4.63;;;15.20;99.90;;;13.87;97.94;98022.34;5050873;28;20088;-64
2021/07/09 05:12:47;;;;;;;11.10;4.72;;;15.20;99.90;;;13.90;98.68;98022.19;5045567;28;20049;-63
2021/07/09 05:15:34;;;;;;;11.85;4.13;;;15.10;99.90;;;14.05;97.40;98025.78;5049249;28;20044;-64
2021/07/09 05:18:25;;;;;;;9.38;4.20;;;15.10;99.90;;;14.19;96.07;98020.75;5048570;28;20065;-63
2021/07/09 05:21:13;;;;;;;7.80;4.75;;;15.10;99.90;;;14.12;97.52;98022.00;5046784;28;20130;-64
2021/07/09 05:24:04;;;;;;;10.43;4.50;;;15.20;99.90;;;14.33;95.96;98020.06;5044550;28;20041;-63
2021/07/09 05:26:53;;;;;;;4.93;3.38;;;15.30;99.90;;;14.51;94.79;98016.50;5049718;28;20040;-63
2021/07/09 05:29:40;;;;;;;8.02;3.95;;;15.30;99.90;;;14.54;94.43;98026.81;5032229;28;20516;-63
2021/07/09 05:32:28;;;;;;;12.10;4.45;;;15.40;99.90;;;14.85;93.69;98020.84;5048200;28;20389;-63
2021/07/09 05:35:16;;;;;;;8.13;3.55;;;15.60;99.90;;;14.85;92.58;98026.06;5048528;28;20048;-63
2021/07/09 05:38:04;;;;;;;7.80;3.90;;;15.70;99.90;;;14.68;93.33;98022.66;5034967;28;20049;-63
2021/07/09 05:40:52;;;;;;;11.43;4.57;;;15.80;99.90;;;14.50;94.85;98035.69;5047766;28;20056;-63
2021/07/09 05:43:39;;;;;;;9.25;4.10;;;16.00;99.90;;;14.75;93.32;98027.47;5048372;28;20049;-63
2021/07/09 05:46:27;;;;;;;11.60;4.32;;;15.90;99.90;;;15.01;92.52;98033.94;5046157;28;20041;-63
2021/07/09 05:49:15;;;;;;;7.50;3.75;;;15.90;99.90;;;15.04;92.10;98028.53;5045291;28;20064;-63
2021/07/09 05:52:04;;;;;;;8.05;3.47;;;15.90;99.90;;;15.13;91.92;98031.59;5045877;28;20219;-63
2021/07/09 05:54:51;;;;;;;8.98;3.92;;;16.00;99.90;;;15.19;92.29;98036.47;5046826;28;20111;-63
2021/07/09 05:57:38;;;;;;;8.07;4.45;;;16.10;99.90;;;15.01;92.04;98038.34;5047489;28;20044;-63
2021/07/09 06:00:26;;;;;;;7.97;4.03;;;16.20;99.90;;;15.14;91.76;98043.75;5049196;28;20069;-63
2021/07/09 06:03:13;;;;;;;9.30;4.40;;;16.30;99.90;;;15.34;91.66;98035.66;5049718;28;20142;-63
2021/07/09 06:06:00;;;;;;;9.63;4.00;;;16.30;99.90;;;15.37;91.10;98045.09;5048445;28;20037;-63
2021/07/09 06:08:48;;;;;;;9.23;4.55;;;16.40;99.90;;;15.21;91.88;98045.97;5050522;28;20083;-62
2021/07/09 06:11:36;;;;;;;5.55;3.45;;;16.30;99.90;;;15.37;91.55;98050.34;5046637;28;20044;-62
2021/07/09 06:14:23;;;;;;;10.52;4.78;;;16.40;99.90;;;15.54;90.57;98045.03;5048592;28;20070;-62
2021/07/09 06:17:10;;;;;;;8.73;4.10;;;16.40;99.90;;;15.42;91.16;98046.56;5045949;28;20044;-63
2021/07/09 06:19:58;;;;;;;7.05;3.60;;;16.50;99.90;;;15.78;89.02;98050.72;5047315;28;20049;-63
2021/07/09 06:22:46;;;;;;;10.23;5.25;;;16.60;99.90;;;15.59;90.22;98057.88;5044417;28;20037;-62
2021/07/09 06:25:33;;;;;;;6.85;4.45;;;16.80;99.90;;;15.80;90.30;98056.69;5046344;28;20407;-62
2021/07/09 06:28:21;;;;;;;8.80;4.35;;;16.90;99.90;;;16.10;88.11;98061.13;5046232;28;20076;-62
2021/07/09 06:31:09;;;;;;;7.22;4.10;;;17.00;99.90;;;16.36;88.19;98059.63;5044398;28;20198;-65
2021/07/09 06:33:56;;;;;;;8.57;4.30;;;17.20;99.90;;;16.26;87.95;98064.56;5046640;28;20171;-62
2021/07/09 06:36:43;;;;;;;8.52;4.57;;;17.30;99.90;;;16.26;86.96;98071.56;5046167;28;20132;-62
2021/07/09 06:39:30;;;;;;;6.25;3.88;;;17.40;99.90;;;16.65;87.42;98070.16;5048298;28;20048;-62
2021/07/09 06:42:18;;;;;;;7.13;3.28;;;17.50;99.90;;;17.01;85.83;98075.00;5047014;28;20106;-62
2021/07/09 06:45:06;;;;;;;12.55;4.85;;;17.80;99.90;;;16.96;83.99;98077.06;5044600;28;20037;-62
2021/07/09 06:47:53;;;;;;;9.25;5.15;;;18.00;99.90;;;17.28;83.82;98072.47;5045646;28;20045;-62
2021/07/09 06:50:41;;;;;;;7.18;4.38;;;18.30;99.90;;;17.07;84.06;98074.63;5049103;28;20040;-62
2021/07/09 06:53:28;;;;;;;10.18;5.75;;;18.20;99.90;;;16.86;84.60;98081.19;5046435;28;20044;-62
2021/07/09 06:56:16;;;;;;;7.45;4.50;;;18.20;99.90;;;17.41;83.56;98075.19;5046294;28;20055;-62
2021/07/09 06:59:03;;;;;;;8.85;4.38;;;18.40;99.90;;;17.78;81.90;98076.31;5048728;28;20049;-62
2021/07/09 07:01:51;;;;;;;7.90;5.60;;;18.60;99.90;;;17.39;82.00;98073.59;5041606;28;20379;-62
2021/07/09 07:04:39;;;;;;;10.80;5.25;;;18.70;99.90;;;17.26;82.36;98076.13;5049943;28;20049;-62
2021/07/09 07:07:27;;;;;;;7.13;4.55;;;18.80;99.90;;;17.94;81.72;98078.00;5046680;28;20087;-62
2021/07/09 07:10:15;;;;;;;11.95;6.03;;;19.10;99.90;;;18.33;81.01;98076.31;5024610;28;20417;-62
2021/07/09 07:13:03;;;;;;;10.15;6.68;;;19.50;99.90;;;18.77;77.46;98075.16;5042672;28;20033;-62
2021/07/09 07:15:51;;;;;;;11.02;7.35;;;19.90;99.90;;;19.42;74.71;98082.91;5048897;28;20555;-65
2021/07/09 07:18:38;;;;;;;11.05;7.43;;;20.20;99.90;;;18.87;74.65;98073.59;5049793;28;20095;-65
2021/07/09 07:21:26;;;;;;;12.07;9.05;;;20.50;99.90;;;19.29;73.72;98079.44;5051663;28;20110;-65
2021/07/09 07:24:13;;;;;;;16.58;10.27;;;20.70;99.90;;;18.68;73.68;98076.59;5051724;28;20126;-65
2021/07/09 07:27:00;;;;;;;15.05;10.90;;;20.80;99.90;;;18.60;73.41;98078.91;5046041;28;20296;-65
2021/07/09 07:29:35;;;;;;;11.60;8.00;;;20.70;99.90;;;19.35;73.08;98076.38;5030573;28;20505;-65
2021/07/09 07:32:02;;;;;;;10.48;7.53;;;20.80;99.90;;;19.88;71.50;98072.69;5065133;28;20044;-65
2021/07/09 07:34:30;;;;;;;13.13;8.07;;;21.00;99.90;;;19.90;71.48;98078.69;5048037;28;20457;-65
2021/07/09 07:37:15;;;;;;;14.15;7.57;;;21.20;99.90;;;19.81;71.69;98065.22;5047511;28;20047;-65
2021/07/09 07:40:04;;;;;;;14.63;8.90;;;21.20;99.90;;;19.86;70.47;98072.78;5049537;28;20060;-65
2021/07/09 07:42:52;;;;;;;12.75;9.60;;;21.40;99.90;;;19.78;70.81;98073.38;5048120;28;20059;-65
2021/07/09 07:45:41;;;;;;;12.15;9.30;;;21.50;99.90;;;20.73;68.75;98076.03;5050879;28;20143;-65
2021/07/09 07:48:28;;;;;;;11.10;8.57;;;22.00;99.90;;;20.30;66.85;98081.03;5052179;28;20503;-65
2021/07/09 07:51:16;;;;;;;16.23;12.65;;;21.90;99.90;;;19.58;68.85;98079.19;5043276;28;20161;-66
2021/07/09 07:54:03;;;;;;;18.08;12.63;;;21.50;99.90;;;19.68;69.02;98077.56;5050503;28;20072;-65
2021/07/09 07:56:51;;;;;;;19.23;12.93;;;21.30;99.90;;;19.50;69.43;98076.25;5047827;28;20500;-66
2021/07/09 07:59:38;;;;;;;16.92;12.50;;;21.20;99.90;;;19.45;69.88;98084.47;5047950;28;20056;-66
2021/07/09 08:02:25;;;;;;;14.18;10.18;;;21.20;99.90;;;19.67;69.84;98085.59;5049343;28;20069;-64
2021/07/09 08:05:13;;;;;;;12.38;9.25;;;21.00;99.90;;;19.93;69.21;98084.56;5049618;28;20065;-64
2021/07/09 08:08:01;;;;;;;14.23;10.25;;;21.10;99.90;;;20.34;68.40;98085.94;5049281;28;20048;-63
2021/07/09 08:10:48;;;;;;;17.67;11.65;;;21.40;99.90;;;19.82;69.02;98088.00;5050787;28;20467;-64
2021/07/09 08:13:35;;;;;;;12.13;10.40;;;21.50;99.90;;;20.53;67.08;98077.53;5046861;28;20079;-64
2021/07/09 08:16:23;;;;;;;12.68;8.40;;;21.90;99.90;;;21.41;65.81;98078.75;5048545;28;20045;-64
2021/07/09 08:19:10;;;;;;;12.13;9.45;;;22.40;99.90;;;21.14;66.48;98074.63;5050277;28;20583;-63
2021/07/09 08:21:57;;;;;;;13.95;8.68;;;22.60;99.90;;;20.75;67.26;98073.28;5049142;28;20041;-64
2021/07/09 08:24:45;;;;;;;10.27;6.68;;;22.40;99.90;;;21.10;66.89;98079.34;5048037;28;20228;-64
2021/07/09 08:27:32;;;;;;;13.02;8.73;;;22.40;99.90;;;19.59;69.18;98078.22;5047225;28;20492;-64
2021/07/09 08:30:20;;;;;;;11.48;8.02;;;22.30;99.90;;;19.96;68.85;98075.63;5051871;28;20072;-64
2021/07/09 08:33:07;;;;;;;13.85;9.23;;;21.90;99.90;;;20.01;66.85;98076.13;5049888;28;20092;-63
2021/07/09 08:35:55;;;;;;;12.05;8.48;;;21.50;99.90;;;19.98;67.56;98071.06;5050427;28;20049;-64
2021/07/09 08:38:42;;;;;;;14.98;7.95;;;21.40;99.90;;;20.43;67.29;98069.44;5051646;28;20037;-64
2021/07/09 08:41:29;;;;;;;10.88;7.18;;;21.70;99.90;;;21.06;65.24;98069.97;5041448;28;20069;-64
2021/07/09 08:44:17;;;;;;;13.52;8.50;;;22.10;99.90;;;19.36;70.35;98078.09;5054867;28;20049;-64
2021/07/09 08:47:05;;;;;;;11.98;8.80;;;22.20;99.90;;;18.62;74.00;98074.38;5048646;28;20041;-64
2021/07/09 08:49:54;;;;;;;15.15;9.10;;;21.80;99.90;;;18.78;73.21;98074.22;5051933;28;20358;-64
2021/07/09 08:52:42;;;;;;;11.05;7.38;;;21.40;99.90;;;19.14;72.10;98072.66;5046653;28;20570;-63
2021/07/09 08:55:29;;;;;;;15.15;8.27;;;21.20;99.90;;;19.16;71.99;98071.59;5047227;28;20037;-63
2021/07/09 08:58:16;;;;;;;10.45;7.45;;;21.50;99.90;;;20.44;67.37;98063.22;5030309;28;20041;-63
2021/07/09 09:01:05;;;;;;;11.30;7.68;;;22.00;99.90;;;19.89;69.21;98072.59;5048738;28;20464;-64
2021/07/09 09:04:04;;;;;;;11.88;6.65;;;22.00;99.90;;;20.45;68.05;98064.06;5050548;28;20496;-64
2021/07/09 09:07:11;;;;;;;8.77;5.93;;;21.50;99.90;;;20.60;68.91;98062.13;5031852;28;20037;-63
2021/07/09 09:09:59;;;;;;;9.65;6.05;;;21.60;99.90;;;21.52;63.79;98062.91;5033845;28;20044;-64
2021/07/09 09:13:15;;;;;;;10.95;6.97;;;22.10;99.90;;;20.83;65.81;98060.34;5048647;28;20133;-63
2021/07/09 09:16:10;;;;;;;9.18;6.47;;;22.40;99.90;;;20.32;67.85;98076.47;5034093;28;20123;-64
2021/07/09 09:18:58;;;;;;;9.20;6.28;;;22.10;99.90;;;20.50;67.75;98077.75;5046812;28;20059;-64
2021/07/09 09:21:46;;;;;;;13.65;8.05;;;22.00;99.90;;;20.05;68.38;98067.03;5049560;28;20060;-64
2021/07/09 09:24:33;;;;;;;13.20;7.32;;;22.30;99.90;;;20.62;66.98;98066.31;5048829;28;20056;-63
2021/07/09 09:27:21;;;;;;;10.50;7.10;;;22.30;99.90;;;21.02;65.79;98063.25;5048999;28;20037;-64
2021/07/09 09:30:12;;;;;;;11.02;5.50;;;22.70;99.90;;;23.38;61.08;98053.59;5050484;28;20191;-64
2021/07/09 09:33:06;;;;;;;8.77;5.18;;;23.30;99.90;;;23.37;58.81;98051.91;5048173;28;20036;-63
2021/07/09 09:35:55;;;;;;;9.82;6.50;;;24.00;99.90;;;21.84;59.80;98062.13;5048499;28;20065;-64
2021/07/09 09:38:49;;;;;;;11.30;7.13;;;24.00;99.90;;;22.57;57.27;98051.75;5049813;28;20103;-64
2021/07/09 09:41:36;;;;;;;9.20;5.75;;;24.00;99.90;;;23.03;56.98;98050.50;5039501;28;20052;-64
2021/07/09 09:44:31;;;;;;;10.50;7.35;;;24.50;99.90;;;23.69;54.70;98055.34;5045628;28;20615;-64
2021/07/09 09:47:21;;;;;;;11.57;8.10;;;24.80;99.90;;;22.54;55.84;98061.63;5013200;28;20049;-64
2021/07/09 09:50:14;;;;;;;9.35;7.18;;;25.00;99.90;;;21.46;59.05;98071.31;5044359;28;20045;-64
2021/07/09 09:53:01;;;;;;;10.48;7.85;;;25.10;99.90;;;21.11;61.41;98066.97;5048295;28;20048;-64
2021/07/09 09:55:49;;;;;;;16.20;10.10;;;24.20;99.90;;;19.70;68.55;98066.97;5046450;28;20060;-64
2021/07/09 09:58:36;;;;;;;17.20;8.85;;;23.20;99.90;;;18.94;76.05;98081.91;5032513;28;20049;-64
2021/07/09 10:01:30;;;;;;;17.70;9.88;;;22.00;99.90;;;18.06;77.21;98092.09;5049088;28;20037;-64
2021/07/09 10:04:19;;;;;;;19.52;12.52;;;20.60;99.90;;;17.60;85.65;98080.09;5046513;28;20036;-63
2021/07/09 10:07:06;;;;;;;15.52;10.98;;;19.60;99.90;;;17.40;83.39;98076.09;5047909;28;20041;-63
2021/07/09 10:09:57;;;;;;;13.77;12.23;;;19.20;99.90;;;17.36;82.54;98072.00;5051785;28;20528;-64
2021/07/09 10:12:49;;;;;;;16.73;13.40;;;18.90;99.90;;;17.58;86.41;98065.41;5038222;28;20044;-63
2021/07/09 10:15:39;;;;;;;18.52;13.25;;;18.80;99.90;;;17.60;88.13;98064.34;5048834;28;20155;-63
2021/07/09 10:18:27;;;;;;;17.20;12.10;;;19.00;99.90;;;17.65;84.57;98074.56;5047431;28;20132;-63
2021/07/09 10:21:14;;;;;;;13.25;10.80;;;19.10;99.90;;;17.81;86.83;98069.19;5047406;28;20047;-63
2021/07/09 10:24:02;;;;;;;13.13;10.30;;;19.30;99.90;;;18.12;86.39;98078.59;5049148;28;20389;-63
2021/07/09 10:26:55;;;;;;;15.80;11.20;;;19.50;99.90;;;18.34;85.08;98081.50;5049299;28;20049;-62
2021/07/09 10:29:45;;;;;;;17.70;11.88;;;19.80;99.90;;;18.37;85.17;98093.59;5044904;28;20037;-63
2021/07/09 10:32:38;;;;;;;18.33;12.73;;;20.20;99.90;;;18.91;82.96;98074.25;5041627;28;20048;-63
2021/07/09 10:35:41;;;;;;;13.80;8.77;;;20.90;99.90;;;20.52;81.36;98078.47;5049146;28;20467;-63
2021/07/09 10:38:40;;;;;;;18.50;11.50;;;21.20;99.90;;;20.02;76.95;98073.34;5047622;28;20056;-63
2021/07/09 10:41:27;;;;;;;12.75;9.00;;;21.80;99.90;;;20.67;78.41;98072.06;5027647;28;20036;-65
2021/07/09 10:44:17;;;;;;;11.98;9.85;;;22.10;99.90;;;20.73;73.04;98067.28;5049220;28;20029;-64
2021/07/09 10:47:16;;;;;;;13.85;9.55;;;22.40;99.90;;;20.67;75.28;98066.78;5048269;28;20040;-64
2021/07/09 10:50:29;;;;;;;16.38;9.85;;;22.30;99.90;;;20.69;71.61;98064.06;5044427;28;20124;-64
2021/07/09 10:53:18;;;;;;;15.13;9.43;;;22.40;99.90;;;20.81;73.03;98062.28;5051822;28;20063;-64
2021/07/09 10:56:08;;;;;;;9.02;7.68;;;22.50;99.90;;;21.16;69.20;98066.59;5047595;28;20049;-64
2021/07/09 10:58:44;;;;;;;14.70;9.45;;;22.40;99.90;;;20.24;69.57;98064.72;5029987;28;20053;-65
2021/07/09 11:01:36;;;;;;;13.75;8.27;;;22.30;99.90;;;20.38;71.20;98060.22;5045898;28;20052;-65
2021/07/09 11:04:37;;;;;;;12.80;9.00;;;22.20;99.90;;;21.39;69.99;98054.22;5047044;28;20045;-65
2021/07/09 11:07:29;;;;;;;10.20;7.22;;;22.50;99.90;;;21.50;68.36;98064.81;5048559;28;20508;-65
2021/07/09 11:11:00;;;;;;;10.00;6.30;;;22.90;99.90;;;22.05;64.45;98055.06;5059766;28;20044;-65
2021/07/09 11:13:54;;;;;;;8.23;6.43;;;23.30;99.90;;;21.91;64.00;98056.19;5041277;28;20064;-65
2021/07/09 11:16:50;;;;;;;10.43;6.57;;;23.60;99.90;;;22.77;65.57;98064.13;5037193;28;20033;-65
2021/07/09 11:19:42;;;;;;;10.20;5.93;;;23.80;99.90;;;23.76;62.84;98053.84;5048376;28;20041;-65
2021/07/09 11:22:36;;;;;;;;;;;24.50;99.90;;;24.01;59.96;98055.97;5029356;28;20049;-65
2021/07/09 11:25:29;;;;;;;6.75;5.03;;;24.70;99.90;;;25.48;59.92;98053.91;5049000;28;19925;-65
2021/07/09 11:28:28;;;;;;;6.95;4.20;;;25.40;99.90;;;25.95;55.77;98051.13;5049751;28;20041;-65
2021/07/09 11:31:33;;;;;;;7.95;3.90;;;26.10;99.90;;;25.24;55.03;98049.94;5049136;28;20385;-65
2021/07/09 11:34:23;;;;;;;7.50;4.05;;;26.40;99.90;;;26.15;51.09;98048.31;5047332;28;20029;-65
2021/07/09 11:37:12;;;;;;;9.30;5.75;;;26.80;99.90;;;26.97;51.28;98023.16;5047918;28;20037;-66
2021/07/09 11:40:06;;;;;;;7.20;4.43;;;27.30;99.90;;;24.43;49.74;98025.69;5045272;28;20041;-66
2021/07/09 11:42:53;;;;;;;6.85;3.33;;;27.10;99.90;;;26.36;47.81;98024.88;5046985;28;20130;-66
2021/07/09 11:45:42;;;;;;;5.80;3.17;;;26.60;99.90;;;27.24;47.44;98024.81;5046373;28;20045;-66